Česky Dansk Deutsch English Español Suomi Français Magyar Italiano Nederlands norsk Polski Português svenska Türkçe

 

Het Weer

Kano (Nigeria)

10:00, 21 augustus 2016 (GMT)

NWNNE
WE
SWSSE
Home            
Kano Zaria Zinder Gusau Kaduna Maradi Jos Goure Sokoto Maine-Soroa Birni-N'Konni Bida Tahoua Diffa Makurdi Maiduguri Yola Agadez Gaya Ilorin Garoua Kandi Enugu

Om een weerknop op uw website of weblog te plaatsen, copieer onderstaande code en plak die in uw pagina. In het eerste vakje staat HTML-code, in het tweede vakje UBB-code.


Add to Google

Details

Wind speed:3 bf, 8 kn, 4.1 m/s, 9.2 miles/h, 14.8 km/h
Wind direction:W, 270°
Visibility:Greater than 10000 m, 10 km, 32800 ft, 6.2 miles
Clouds:CAVOC
Temperature:29°C, 84°F
Gefühlte Temperatur:33°C, 91°F
Dew-point:23°C, 73°F
Atmospheric pressure:1015 hPa, 761.3 mmHg, 29.97 inHg, 1.002 atm
Relative humidity:70.1 %
METAR:DNKN 211000Z 27008KT CAVOK 29/23 Q1015 NOSIG

Snelkoppelingen

Actuele weersinformatie van de hele wereld. Voeg locaties toe met het plus (+) symbool. Deze snelkoppelingen kunnen worden toegevoegd aan Google.

Lid van de Technetium groep

website free tracking
StatCounter NetStat W3C Validator

24-05-2018 07:53:29
astro.technetium.be money.technetium.be phote.technetium.be tafeltennistafel.technetium.be www.ligfiets.net